sensor_id;sensor_type;location;lat;lon;timestamp;P1;durP1;ratioP1;P2;durP2;ratioP2
37763;SDS011;23602;51.084;7.090;2023-01-25T00:02:11;19.02;;;12.95;;
37763;SDS011;23602;51.084;7.090;2023-01-25T00:04:39;21.58;;;13.25;;
37763;SDS011;23602;51.084;7.090;2023-01-25T00:07:04;22.00;;;14.55;;
37763;SDS011;23602;51.084;7.090;2023-01-25T00:09:29;20.27;;;12.90;;
37763;SDS011;23602;51.084;7.090;2023-01-25T00:11:55;21.42;;;12.57;;
37763;SDS011;23602;51.084;7.090;2023-01-25T00:14:22;17.80;;;10.90;;
37763;SDS011;23602;51.084;7.090;2023-01-25T00:16:48;22.55;;;13.80;;
37763;SDS011;23602;51.084;7.090;2023-01-25T00:19:13;19.00;;;12.20;;
37763;SDS011;23602;51.084;7.090;2023-01-25T00:21:39;23.40;;;13.35;;
37763;SDS011;23602;51.084;7.090;2023-01-25T00:24:07;19.75;;;12.63;;
37763;SDS011;23602;51.084;7.090;2023-01-25T00:26:35;21.60;;;13.02;;
37763;SDS011;23602;51.084;7.090;2023-01-25T00:29:01;20.83;;;12.55;;
37763;SDS011;23602;51.084;7.090;2023-01-25T00:34:05;19.70;;;12.75;;
37763;SDS011;23602;51.084;7.090;2023-01-25T00:36:55;24.10;;;13.13;;
37763;SDS011;23602;51.084;7.090;2023-01-25T00:39:25;22.38;;;14.23;;
37763;SDS011;23602;51.084;7.090;2023-01-25T00:41:51;28.20;;;15.43;;
37763;SDS011;23602;51.084;7.090;2023-01-25T00:44:17;24.23;;;13.77;;
37763;SDS011;23602;51.084;7.090;2023-01-25T00:46:42;21.98;;;12.80;;
37763;SDS011;23602;51.084;7.090;2023-01-25T00:49:18;24.75;;;14.57;;
37763;SDS011;23602;51.084;7.090;2023-01-25T00:51:45;22.02;;;13.10;;
37763;SDS011;23602;51.084;7.090;2023-01-25T00:54:11;22.48;;;13.80;;
37763;SDS011;23602;51.084;7.090;2023-01-25T00:56:36;20.58;;;12.23;;
37763;SDS011;23602;51.084;7.090;2023-01-25T00:59:02;24.70;;;14.63;;
37763;SDS011;23602;51.084;7.090;2023-01-25T01:01:27;20.38;;;12.88;;
37763;SDS011;23602;51.084;7.090;2023-01-25T01:03:53;25.73;;;14.18;;
37763;SDS011;23602;51.084;7.090;2023-01-25T01:06:18;23.27;;;13.70;;
37763;SDS011;23602;51.084;7.090;2023-01-25T01:08:44;22.77;;;13.07;;
37763;SDS011;23602;51.084;7.090;2023-01-25T01:11:10;21.48;;;14.15;;
37763;SDS011;23602;51.084;7.090;2023-01-25T01:13:36;18.30;;;10.13;;
37763;SDS011;23602;51.084;7.090;2023-01-25T01:16:03;20.88;;;13.35;;
37763;SDS011;23602;51.084;7.090;2023-01-25T01:18:33;22.58;;;14.00;;
37763;SDS011;23602;51.084;7.090;2023-01-25T01:21:00;23.98;;;13.98;;
37763;SDS011;23602;51.084;7.090;2023-01-25T01:23:26;22.30;;;13.65;;
37763;SDS011;23602;51.084;7.090;2023-01-25T01:25:52;19.75;;;11.23;;
37763;SDS011;23602;51.084;7.090;2023-01-25T01:28:18;21.85;;;13.27;;
37763;SDS011;23602;51.084;7.090;2023-01-25T01:30:43;22.08;;;14.18;;
37763;SDS011;23602;51.084;7.090;2023-01-25T01:33:09;24.67;;;14.93;;
37763;SDS011;23602;51.084;7.090;2023-01-25T01:35:34;24.15;;;14.27;;
37763;SDS011;23602;51.084;7.090;2023-01-25T01:38:00;25.13;;;14.48;;
37763;SDS011;23602;51.084;7.090;2023-01-25T01:40:25;21.98;;;13.57;;
37763;SDS011;23602;51.084;7.090;2023-01-25T01:42:54;24.33;;;14.50;;
37763;SDS011;23602;51.084;7.090;2023-01-25T01:50:55;23.83;;;13.43;;
37763;SDS011;23602;51.084;7.090;2023-01-25T01:53:24;22.65;;;13.23;;
37763;SDS011;23602;51.084;7.090;2023-01-25T01:55:52;24.88;;;13.73;;
37763;SDS011;23602;51.084;7.090;2023-01-25T01:58:21;24.92;;;13.40;;
37763;SDS011;23602;51.084;7.090;2023-01-25T02:00:46;21.55;;;13.32;;
37763;SDS011;23602;51.084;7.090;2023-01-25T02:03:12;25.45;;;14.43;;
37763;SDS011;23602;51.084;7.090;2023-01-25T02:08:20;22.05;;;12.93;;
37763;SDS011;23602;51.084;7.090;2023-01-25T02:10:47;22.15;;;12.35;;
37763;SDS011;23602;51.084;7.090;2023-01-25T02:13:14;17.45;;;9.88;;
37763;SDS011;23602;51.084;7.090;2023-01-25T02:15:44;33.53;;;17.35;;
37763;SDS011;23602;51.084;7.090;2023-01-25T02:18:11;24.13;;;14.25;;
37763;SDS011;23602;51.084;7.090;2023-01-25T02:20:38;24.90;;;14.38;;
37763;SDS011;23602;51.084;7.090;2023-01-25T02:25:40;26.50;;;14.93;;
37763;SDS011;23602;51.084;7.090;2023-01-25T02:30:36;24.73;;;14.30;;
37763;SDS011;23602;51.084;7.090;2023-01-25T02:33:01;29.35;;;14.98;;
37763;SDS011;23602;51.084;7.090;2023-01-25T02:35:48;24.30;;;13.75;;
37763;SDS011;23602;51.084;7.090;2023-01-25T02:38:15;25.02;;;15.48;;
37763;SDS011;23602;51.084;7.090;2023-01-25T02:40:47;24.65;;;14.40;;
37763;SDS011;23602;51.084;7.090;2023-01-25T02:43:17;24.30;;;13.48;;
37763;SDS011;23602;51.084;7.090;2023-01-25T02:45:47;28.08;;;15.20;;
37763;SDS011;23602;51.084;7.090;2023-01-25T02:48:16;27.08;;;14.18;;
37763;SDS011;23602;51.084;7.090;2023-01-25T02:50:41;23.20;;;14.10;;
37763;SDS011;23602;51.084;7.090;2023-01-25T02:53:07;27.05;;;14.40;;
37763;SDS011;23602;51.084;7.090;2023-01-25T02:55:32;26.65;;;14.73;;
37763;SDS011;23602;51.084;7.090;2023-01-25T02:57:58;26.73;;;14.00;;
37763;SDS011;23602;51.084;7.090;2023-01-25T03:00:23;24.30;;;13.45;;
37763;SDS011;23602;51.084;7.090;2023-01-25T03:02:49;26.52;;;14.55;;
37763;SDS011;23602;51.084;7.090;2023-01-25T03:05:14;22.58;;;13.50;;
37763;SDS011;23602;51.084;7.090;2023-01-25T03:07:40;23.08;;;14.30;;
37763;SDS011;23602;51.084;7.090;2023-01-25T03:10:05;26.85;;;14.82;;
37763;SDS011;23602;51.084;7.090;2023-01-25T03:12:31;23.13;;;13.93;;
37763;SDS011;23602;51.084;7.090;2023-01-25T03:14:56;23.42;;;13.77;;
37763;SDS011;23602;51.084;7.090;2023-01-25T03:17:22;24.98;;;14.35;;
37763;SDS011;23602;51.084;7.090;2023-01-25T03:19:48;16.63;;;9.65;;
37763;SDS011;23602;51.084;7.090;2023-01-25T03:22:14;25.60;;;15.13;;
37763;SDS011;23602;51.084;7.090;2023-01-25T03:24:39;26.58;;;14.20;;
37763;SDS011;23602;51.084;7.090;2023-01-25T03:27:05;23.98;;;14.35;;
37763;SDS011;23602;51.084;7.090;2023-01-25T03:29:42;25.40;;;14.77;;
37763;SDS011;23602;51.084;7.090;2023-01-25T03:32:08;27.60;;;15.00;;
37763;SDS011;23602;51.084;7.090;2023-01-25T03:34:33;27.17;;;14.20;;
37763;SDS011;23602;51.084;7.090;2023-01-25T03:36:59;26.10;;;15.35;;
37763;SDS011;23602;51.084;7.090;2023-01-25T03:39:24;25.13;;;13.25;;
37763;SDS011;23602;51.084;7.090;2023-01-25T03:41:50;24.80;;;14.15;;
37763;SDS011;23602;51.084;7.090;2023-01-25T03:44:15;24.52;;;14.75;;
37763;SDS011;23602;51.084;7.090;2023-01-25T03:46:41;22.50;;;13.32;;
37763;SDS011;23602;51.084;7.090;2023-01-25T03:49:07;27.98;;;15.00;;
37763;SDS011;23602;51.084;7.090;2023-01-25T03:51:33;28.70;;;15.07;;
37763;SDS011;23602;51.084;7.090;2023-01-25T03:53:59;26.13;;;13.50;;
37763;SDS011;23602;51.084;7.090;2023-01-25T03:56:24;25.63;;;14.70;;
37763;SDS011;23602;51.084;7.090;2023-01-25T03:58:50;26.88;;;13.52;;
37763;SDS011;23602;51.084;7.090;2023-01-25T04:01:15;25.70;;;13.77;;
37763;SDS011;23602;51.084;7.090;2023-01-25T04:03:40;26.45;;;13.88;;
37763;SDS011;23602;51.084;7.090;2023-01-25T04:06:06;26.75;;;13.95;;
37763;SDS011;23602;51.084;7.090;2023-01-25T04:08:32;22.80;;;13.48;;
37763;SDS011;23602;51.084;7.090;2023-01-25T04:11:02;24.67;;;14.05;;
37763;SDS011;23602;51.084;7.090;2023-01-25T04:13:30;23.63;;;13.27;;
37763;SDS011;23602;51.084;7.090;2023-01-25T04:15:59;21.85;;;13.73;;
37763;SDS011;23602;51.084;7.090;2023-01-25T04:18:24;22.42;;;12.25;;
37763;SDS011;23602;51.084;7.090;2023-01-25T04:20:53;29.00;;;13.77;;
37763;SDS011;23602;51.084;7.090;2023-01-25T04:23:19;23.67;;;13.02;;
37763;SDS011;23602;51.084;7.090;2023-01-25T04:25:55;23.83;;;13.77;;
37763;SDS011;23602;51.084;7.090;2023-01-25T04:28:22;21.00;;;10.55;;
37763;SDS011;23602;51.084;7.090;2023-01-25T04:30:47;22.15;;;13.35;;
37763;SDS011;23602;51.084;7.090;2023-01-25T04:33:13;27.55;;;14.15;;
37763;SDS011;23602;51.084;7.090;2023-01-25T04:35:39;24.38;;;13.07;;
37763;SDS011;23602;51.084;7.090;2023-01-25T04:38:04;25.83;;;13.82;;
37763;SDS011;23602;51.084;7.090;2023-01-25T04:40:30;28.63;;;14.15;;
37763;SDS011;23602;51.084;7.090;2023-01-25T04:42:55;26.58;;;14.80;;
37763;SDS011;23602;51.084;7.090;2023-01-25T04:45:21;25.05;;;14.20;;
37763;SDS011;23602;51.084;7.090;2023-01-25T04:47:48;26.20;;;14.03;;
37763;SDS011;23602;51.084;7.090;2023-01-25T04:50:14;27.02;;;14.77;;
37763;SDS011;23602;51.084;7.090;2023-01-25T04:52:39;26.25;;;14.50;;
37763;SDS011;23602;51.084;7.090;2023-01-25T04:55:04;31.33;;;15.48;;
37763;SDS011;23602;51.084;7.090;2023-01-25T04:57:30;29.80;;;15.52;;
37763;SDS011;23602;51.084;7.090;2023-01-25T04:59:55;30.40;;;15.00;;
37763;SDS011;23602;51.084;7.090;2023-01-25T05:02:21;30.58;;;15.70;;
37763;SDS011;23602;51.084;7.090;2023-01-25T05:04:46;34.00;;;15.88;;
37763;SDS011;23602;51.084;7.090;2023-01-25T05:07:12;26.55;;;15.05;;
37763;SDS011;23602;51.084;7.090;2023-01-25T05:09:37;32.55;;;16.33;;
37763;SDS011;23602;51.084;7.090;2023-01-25T05:12:02;34.97;;;16.42;;
37763;SDS011;23602;51.084;7.090;2023-01-25T05:14:29;22.63;;;11.32;;
37763;SDS011;23602;51.084;7.090;2023-01-25T05:16:55;28.10;;;14.63;;
37763;SDS011;23602;51.084;7.090;2023-01-25T05:19:20;25.85;;;14.40;;
37763;SDS011;23602;51.084;7.090;2023-01-25T05:21:45;27.08;;;14.23;;
37763;SDS011;23602;51.084;7.090;2023-01-25T05:24:26;27.55;;;15.38;;
37763;SDS011;23602;51.084;7.090;2023-01-25T05:26:53;27.98;;;15.57;;
37763;SDS011;23602;51.084;7.090;2023-01-25T05:29:26;31.20;;;15.85;;
37763;SDS011;23602;51.084;7.090;2023-01-25T05:31:51;34.63;;;17.00;;
37763;SDS011;23602;51.084;7.090;2023-01-25T05:34:17;31.20;;;16.33;;
37763;SDS011;23602;51.084;7.090;2023-01-25T05:36:43;32.20;;;16.73;;
37763;SDS011;23602;51.084;7.090;2023-01-25T05:39:08;30.80;;;16.50;;
37763;SDS011;23602;51.084;7.090;2023-01-25T05:41:34;32.50;;;17.70;;
37763;SDS011;23602;51.084;7.090;2023-01-25T05:43:59;32.53;;;16.90;;
37763;SDS011;23602;51.084;7.090;2023-01-25T05:46:28;28.90;;;15.93;;
37763;SDS011;23602;51.084;7.090;2023-01-25T05:48:54;33.47;;;16.58;;
37763;SDS011;23602;51.084;7.090;2023-01-25T05:51:19;29.35;;;16.08;;
37763;SDS011;23602;51.084;7.090;2023-01-25T05:53:45;30.50;;;17.35;;
37763;SDS011;23602;51.084;7.090;2023-01-25T05:56:10;28.63;;;15.48;;
37763;SDS011;23602;51.084;7.090;2023-01-25T05:58:36;31.65;;;17.08;;
37763;SDS011;23602;51.084;7.090;2023-01-25T06:01:03;36.75;;;18.05;;
37763;SDS011;23602;51.084;7.090;2023-01-25T06:03:30;34.22;;;19.58;;
37763;SDS011;23602;51.084;7.090;2023-01-25T06:05:56;36.50;;;19.33;;
37763;SDS011;23602;51.084;7.090;2023-01-25T06:08:23;37.17;;;17.17;;
37763;SDS011;23602;51.084;7.090;2023-01-25T06:10:49;35.75;;;17.35;;
37763;SDS011;23602;51.084;7.090;2023-01-25T06:13:14;33.20;;;17.50;;
37763;SDS011;23602;51.084;7.090;2023-01-25T06:15:40;32.60;;;17.40;;
37763;SDS011;23602;51.084;7.090;2023-01-25T06:18:06;31.42;;;16.88;;
37763;SDS011;23602;51.084;7.090;2023-01-25T06:20:31;34.63;;;18.48;;
37763;SDS011;23602;51.084;7.090;2023-01-25T06:22:57;34.42;;;18.27;;
37763;SDS011;23602;51.084;7.090;2023-01-25T06:25:22;44.13;;;22.45;;
37763;SDS011;23602;51.084;7.090;2023-01-25T06:27:48;36.80;;;18.67;;
37763;SDS011;23602;51.084;7.090;2023-01-25T06:30:13;30.50;;;16.70;;
37763;SDS011;23602;51.084;7.090;2023-01-25T06:32:39;31.88;;;18.25;;
37763;SDS011;23602;51.084;7.090;2023-01-25T06:35:04;36.20;;;19.45;;
37763;SDS011;23602;51.084;7.090;2023-01-25T06:37:30;34.80;;;18.55;;
37763;SDS011;23602;51.084;7.090;2023-01-25T06:39:55;31.17;;;16.83;;
37763;SDS011;23602;51.084;7.090;2023-01-25T06:42:22;34.42;;;18.77;;
37763;SDS011;23602;51.084;7.090;2023-01-25T06:44:48;36.22;;;17.33;;
37763;SDS011;23602;51.084;7.090;2023-01-25T06:47:14;32.15;;;16.73;;
37763;SDS011;23602;51.084;7.090;2023-01-25T06:49:39;34.90;;;18.48;;
37763;SDS011;23602;51.084;7.090;2023-01-25T06:52:04;31.02;;;17.58;;
37763;SDS011;23602;51.084;7.090;2023-01-25T06:54:30;36.15;;;17.10;;
37763;SDS011;23602;51.084;7.090;2023-01-25T06:56:55;31.55;;;17.05;;
37763;SDS011;23602;51.084;7.090;2023-01-25T06:59:21;32.70;;;17.55;;
37763;SDS011;23602;51.084;7.090;2023-01-25T07:01:46;30.95;;;17.95;;
37763;SDS011;23602;51.084;7.090;2023-01-25T07:04:12;32.60;;;17.33;;
37763;SDS011;23602;51.084;7.090;2023-01-25T07:06:38;31.67;;;16.88;;
37763;SDS011;23602;51.084;7.090;2023-01-25T07:09:04;30.88;;;16.92;;
37763;SDS011;23602;51.084;7.090;2023-01-25T07:11:31;33.08;;;17.05;;
37763;SDS011;23602;51.084;7.090;2023-01-25T07:13:57;29.20;;;16.08;;
37763;SDS011;23602;51.084;7.090;2023-01-25T07:16:22;35.20;;;17.90;;
37763;SDS011;23602;51.084;7.090;2023-01-25T07:18:48;33.28;;;17.52;;
37763;SDS011;23602;51.084;7.090;2023-01-25T07:21:22;31.92;;;16.65;;
37763;SDS011;23602;51.084;7.090;2023-01-25T07:23:48;31.55;;;17.05;;
37763;SDS011;23602;51.084;7.090;2023-01-25T07:26:16;26.90;;;14.48;;
37763;SDS011;23602;51.084;7.090;2023-01-25T07:28:43;29.58;;;16.08;;
37763;SDS011;23602;51.084;7.090;2023-01-25T07:31:09;30.60;;;16.20;;
37763;SDS011;23602;51.084;7.090;2023-01-25T07:33:35;29.98;;;16.33;;
37763;SDS011;23602;51.084;7.090;2023-01-25T07:36:01;34.42;;;17.33;;
37763;SDS011;23602;51.084;7.090;2023-01-25T07:38:27;34.03;;;17.92;;
37763;SDS011;23602;51.084;7.090;2023-01-25T07:40:52;32.22;;;17.33;;
37763;SDS011;23602;51.084;7.090;2023-01-25T07:43:18;34.55;;;17.17;;
37763;SDS011;23602;51.084;7.090;2023-01-25T07:45:44;33.72;;;18.35;;
37763;SDS011;23602;51.084;7.090;2023-01-25T07:48:12;34.25;;;17.88;;
37763;SDS011;23602;51.084;7.090;2023-01-25T07:50:38;34.13;;;15.95;;
37763;SDS011;23602;51.084;7.090;2023-01-25T07:53:05;32.80;;;17.10;;
37763;SDS011;23602;51.084;7.090;2023-01-25T07:55:33;29.30;;;16.05;;
37763;SDS011;23602;51.084;7.090;2023-01-25T07:57:59;32.35;;;16.95;;
37763;SDS011;23602;51.084;7.090;2023-01-25T08:00:25;29.85;;;16.52;;
37763;SDS011;23602;51.084;7.090;2023-01-25T08:02:51;34.92;;;18.65;;
37763;SDS011;23602;51.084;7.090;2023-01-25T08:05:17;33.10;;;17.55;;
37763;SDS011;23602;51.084;7.090;2023-01-25T08:07:43;31.77;;;17.80;;
37763;SDS011;23602;51.084;7.090;2023-01-25T08:10:09;31.52;;;17.38;;
37763;SDS011;23602;51.084;7.090;2023-01-25T08:12:35;35.25;;;18.08;;
37763;SDS011;23602;51.084;7.090;2023-01-25T08:15:00;36.25;;;18.00;;
37763;SDS011;23602;51.084;7.090;2023-01-25T08:17:26;35.33;;;18.30;;
37763;SDS011;23602;51.084;7.090;2023-01-25T08:19:56;33.42;;;17.42;;
37763;SDS011;23602;51.084;7.090;2023-01-25T08:22:25;33.60;;;18.60;;
37763;SDS011;23602;51.084;7.090;2023-01-25T08:24:51;38.40;;;18.23;;
37763;SDS011;23602;51.084;7.090;2023-01-25T08:27:16;32.90;;;17.05;;
37763;SDS011;23602;51.084;7.090;2023-01-25T08:29:42;32.17;;;16.95;;
37763;SDS011;23602;51.084;7.090;2023-01-25T08:32:07;33.97;;;17.70;;
37763;SDS011;23602;51.084;7.090;2023-01-25T08:34:33;33.40;;;16.60;;
37763;SDS011;23602;51.084;7.090;2023-01-25T08:36:58;30.95;;;16.75;;
37763;SDS011;23602;51.084;7.090;2023-01-25T08:39:24;42.05;;;20.52;;
37763;SDS011;23602;51.084;7.090;2023-01-25T08:41:49;42.75;;;20.08;;
37763;SDS011;23602;51.084;7.090;2023-01-25T08:44:15;34.70;;;17.60;;
37763;SDS011;23602;51.084;7.090;2023-01-25T08:46:40;36.55;;;18.00;;
37763;SDS011;23602;51.084;7.090;2023-01-25T08:49:06;39.65;;;19.30;;
37763;SDS011;23602;51.084;7.090;2023-01-25T08:51:33;38.17;;;14.57;;
37763;SDS011;23602;51.084;7.090;2023-01-25T08:54:05;35.08;;;18.30;;
37763;SDS011;23602;51.084;7.090;2023-01-25T08:56:32;33.58;;;17.38;;
37763;SDS011;23602;51.084;7.090;2023-01-25T08:59:00;33.47;;;17.77;;
37763;SDS011;23602;51.084;7.090;2023-01-25T09:01:25;40.60;;;18.20;;
37763;SDS011;23602;51.084;7.090;2023-01-25T09:03:51;41.05;;;18.90;;
37763;SDS011;23602;51.084;7.090;2023-01-25T09:06:18;38.65;;;19.75;;
37763;SDS011;23602;51.084;7.090;2023-01-25T09:08:44;32.47;;;16.42;;
37763;SDS011;23602;51.084;7.090;2023-01-25T09:11:11;40.78;;;20.60;;
37763;SDS011;23602;51.084;7.090;2023-01-25T09:13:38;37.83;;;19.63;;
37763;SDS011;23602;51.084;7.090;2023-01-25T09:16:08;32.08;;;17.60;;
37763;SDS011;23602;51.084;7.090;2023-01-25T09:18:38;41.40;;;18.67;;
37763;SDS011;23602;51.084;7.090;2023-01-25T09:21:05;37.83;;;19.17;;
37763;SDS011;23602;51.084;7.090;2023-01-25T09:23:31;32.53;;;16.73;;
37763;SDS011;23602;51.084;7.090;2023-01-25T09:25:57;38.30;;;17.80;;
37763;SDS011;23602;51.084;7.090;2023-01-25T09:28:27;39.85;;;20.55;;
37763;SDS011;23602;51.084;7.090;2023-01-25T09:31:01;40.13;;;18.58;;
37763;SDS011;23602;51.084;7.090;2023-01-25T09:33:33;38.67;;;17.75;;
37763;SDS011;23602;51.084;7.090;2023-01-25T09:36:00;39.28;;;18.17;;
37763;SDS011;23602;51.084;7.090;2023-01-25T09:38:26;33.58;;;17.23;;
37763;SDS011;23602;51.084;7.090;2023-01-25T09:41:05;39.42;;;17.27;;
37763;SDS011;23602;51.084;7.090;2023-01-25T09:55:18;31.40;;;15.32;;
37763;SDS011;23602;51.084;7.090;2023-01-25T09:57:46;36.15;;;17.35;;
37763;SDS011;23602;51.084;7.090;2023-01-25T10:00:21;32.38;;;16.00;;
37763;SDS011;23602;51.084;7.090;2023-01-25T10:02:57;39.38;;;16.73;;
37763;SDS011;23602;51.084;7.090;2023-01-25T10:05:45;36.80;;;16.60;;
37763;SDS011;23602;51.084;7.090;2023-01-25T10:11:25;37.10;;;17.38;;
37763;SDS011;23602;51.084;7.090;2023-01-25T10:13:53;36.90;;;16.98;;
37763;SDS011;23602;51.084;7.090;2023-01-25T10:16:23;38.05;;;17.63;;
37763;SDS011;23602;51.084;7.090;2023-01-25T10:21:41;36.03;;;18.30;;
37763;SDS011;23602;51.084;7.090;2023-01-25T10:24:13;45.78;;;19.10;;
37763;SDS011;23602;51.084;7.090;2023-01-25T10:27:15;37.42;;;15.98;;
37763;SDS011;23602;51.084;7.090;2023-01-25T10:30:16;39.45;;;18.48;;
37763;SDS011;23602;51.084;7.090;2023-01-25T10:32:58;38.90;;;17.05;;
37763;SDS011;23602;51.084;7.090;2023-01-25T10:35:27;33.40;;;17.08;;
37763;SDS011;23602;51.084;7.090;2023-01-25T10:38:00;40.22;;;19.10;;
37763;SDS011;23602;51.084;7.090;2023-01-25T10:40:32;36.60;;;17.25;;
37763;SDS011;23602;51.084;7.090;2023-01-25T10:43:06;39.25;;;18.00;;
37763;SDS011;23602;51.084;7.090;2023-01-25T10:45:40;41.15;;;16.70;;
37763;SDS011;23602;51.084;7.090;2023-01-25T10:48:09;34.85;;;17.13;;
37763;SDS011;23602;51.084;7.090;2023-01-25T10:53:20;41.58;;;18.65;;
37763;SDS011;23602;51.084;7.090;2023-01-25T10:56:31;40.47;;;18.70;;
37763;SDS011;23602;51.084;7.090;2023-01-25T10:58:52;39.85;;;18.52;;
37763;SDS011;23602;51.084;7.090;2023-01-25T11:01:49;40.20;;;19.20;;
37763;SDS011;23602;51.084;7.090;2023-01-25T11:04:32;36.45;;;16.95;;
37763;SDS011;23602;51.084;7.090;2023-01-25T11:06:59;40.67;;;18.08;;
37763;SDS011;23602;51.084;7.090;2023-01-25T11:12:18;38.78;;;17.73;;
37763;SDS011;23602;51.084;7.090;2023-01-25T11:14:45;38.42;;;17.40;;
37763;SDS011;23602;51.084;7.090;2023-01-25T11:17:25;41.67;;;18.30;;
37763;SDS011;23602;51.084;7.090;2023-01-25T11:22:50;37.60;;;17.73;;
37763;SDS011;23602;51.084;7.090;2023-01-25T11:25:27;35.75;;;17.67;;
37763;SDS011;23602;51.084;7.090;2023-01-25T11:28:09;37.97;;;17.95;;
37763;SDS011;23602;51.084;7.090;2023-01-25T11:30:36;43.10;;;19.33;;
37763;SDS011;23602;51.084;7.090;2023-01-25T11:33:01;42.85;;;18.63;;
37763;SDS011;23602;51.084;7.090;2023-01-25T11:35:30;36.55;;;17.77;;
37763;SDS011;23602;51.084;7.090;2023-01-25T11:38:02;39.65;;;18.63;;
37763;SDS011;23602;51.084;7.090;2023-01-25T11:40:38;53.45;;;20.45;;
37763;SDS011;23602;51.084;7.090;2023-01-25T11:43:56;38.95;;;19.70;;
37763;SDS011;23602;51.084;7.090;2023-01-25T11:52:21;47.38;;;22.27;;
37763;SDS011;23602;51.084;7.090;2023-01-25T12:03:12;46.55;;;19.60;;
37763;SDS011;23602;51.084;7.090;2023-01-25T12:08:51;45.83;;;19.93;;
37763;SDS011;23602;51.084;7.090;2023-01-25T12:22:41;48.58;;;20.50;;
37763;SDS011;23602;51.084;7.090;2023-01-25T12:30:50;69.22;;;27.08;;
37763;SDS011;23602;51.084;7.090;2023-01-25T12:36:41;61.42;;;27.67;;
37763;SDS011;23602;51.084;7.090;2023-01-25T12:39:19;56.60;;;24.50;;
37763;SDS011;23602;51.084;7.090;2023-01-25T12:42:07;62.50;;;25.15;;
37763;SDS011;23602;51.084;7.090;2023-01-25T12:44:42;65.43;;;24.83;;
37763;SDS011;23602;51.084;7.090;2023-01-25T12:52:33;65.72;;;27.70;;
37763;SDS011;23602;51.084;7.090;2023-01-25T12:55:05;62.42;;;27.85;;
37763;SDS011;23602;51.084;7.090;2023-01-25T12:57:57;56.80;;;25.98;;
37763;SDS011;23602;51.084;7.090;2023-01-25T13:00:41;57.33;;;25.73;;
37763;SDS011;23602;51.084;7.090;2023-01-25T13:03:20;58.30;;;24.15;;
37763;SDS011;23602;51.084;7.090;2023-01-25T13:11:26;63.10;;;28.40;;
37763;SDS011;23602;51.084;7.090;2023-01-25T13:16:43;58.40;;;25.65;;
37763;SDS011;23602;51.084;7.090;2023-01-25T13:19:17;69.22;;;28.52;;
37763;SDS011;23602;51.084;7.090;2023-01-25T13:21:45;74.30;;;30.08;;
37763;SDS011;23602;51.084;7.090;2023-01-25T13:25:05;66.82;;;29.02;;
37763;SDS011;23602;51.084;7.090;2023-01-25T13:27:27;89.72;;;31.35;;
37763;SDS011;23602;51.084;7.090;2023-01-25T13:41:03;107.00;;;32.92;;
37763;SDS011;23602;51.084;7.090;2023-01-25T13:43:36;77.80;;;29.88;;
37763;SDS011;23602;51.084;7.090;2023-01-25T13:46:03;79.57;;;31.65;;
37763;SDS011;23602;51.084;7.090;2023-01-25T13:48:32;75.72;;;28.95;;
37763;SDS011;23602;51.084;7.090;2023-01-25T13:51:01;70.95;;;26.98;;
37763;SDS011;23602;51.084;7.090;2023-01-25T13:53:29;71.95;;;29.00;;
37763;SDS011;23602;51.084;7.090;2023-01-25T13:55:59;70.53;;;28.90;;
37763;SDS011;23602;51.084;7.090;2023-01-25T13:58:27;81.68;;;31.10;;
37763;SDS011;23602;51.084;7.090;2023-01-25T14:00:54;101.70;;;34.78;;
37763;SDS011;23602;51.084;7.090;2023-01-25T14:03:25;96.07;;;33.00;;
37763;SDS011;23602;51.084;7.090;2023-01-25T14:05:58;104.28;;;34.90;;
37763;SDS011;23602;51.084;7.090;2023-01-25T14:08:26;101.43;;;34.92;;
37763;SDS011;23602;51.084;7.090;2023-01-25T14:10:55;96.35;;;32.60;;
37763;SDS011;23602;51.084;7.090;2023-01-25T14:13:21;97.72;;;35.00;;
37763;SDS011;23602;51.084;7.090;2023-01-25T14:16:07;82.63;;;33.03;;
37763;SDS011;23602;51.084;7.090;2023-01-25T14:18:34;70.35;;;25.65;;
37763;SDS011;23602;51.084;7.090;2023-01-25T14:21:11;89.32;;;32.00;;
37763;SDS011;23602;51.084;7.090;2023-01-25T14:23:44;102.00;;;35.13;;
37763;SDS011;23602;51.084;7.090;2023-01-25T14:26:20;86.63;;;33.10;;
37763;SDS011;23602;51.084;7.090;2023-01-25T14:28:49;98.32;;;33.97;;
37763;SDS011;23602;51.084;7.090;2023-01-25T14:31:24;83.95;;;32.17;;
37763;SDS011;23602;51.084;7.090;2023-01-25T14:33:53;104.45;;;35.22;;
37763;SDS011;23602;51.084;7.090;2023-01-25T14:36:22;84.35;;;33.35;;
37763;SDS011;23602;51.084;7.090;2023-01-25T14:38:53;83.15;;;32.03;;
37763;SDS011;23602;51.084;7.090;2023-01-25T14:41:35;81.28;;;30.95;;
37763;SDS011;23602;51.084;7.090;2023-01-25T14:44:03;73.32;;;30.40;;
37763;SDS011;23602;51.084;7.090;2023-01-25T14:46:34;78.03;;;32.40;;
37763;SDS011;23602;51.084;7.090;2023-01-25T14:49:18;95.85;;;33.80;;
37763;SDS011;23602;51.084;7.090;2023-01-25T14:54:30;78.45;;;30.88;;
37763;SDS011;23602;51.084;7.090;2023-01-25T14:57:01;84.95;;;34.13;;
37763;SDS011;23602;51.084;7.090;2023-01-25T14:59:37;97.88;;;35.15;;
37763;SDS011;23602;51.084;7.090;2023-01-25T15:02:16;85.68;;;32.75;;
37763;SDS011;23602;51.084;7.090;2023-01-25T15:05:00;85.25;;;34.50;;
37763;SDS011;23602;51.084;7.090;2023-01-25T15:07:35;85.57;;;33.00;;
37763;SDS011;23602;51.084;7.090;2023-01-25T15:10:16;81.93;;;32.65;;
37763;SDS011;23602;51.084;7.090;2023-01-25T15:15:24;75.05;;;32.25;;
37763;SDS011;23602;51.084;7.090;2023-01-25T15:17:51;75.53;;;31.77;;
37763;SDS011;23602;51.084;7.090;2023-01-25T15:20:38;79.57;;;31.33;;
37763;SDS011;23602;51.084;7.090;2023-01-25T15:25:51;74.68;;;30.48;;
37763;SDS011;23602;51.084;7.090;2023-01-25T15:28:26;77.68;;;31.48;;
37763;SDS011;23602;51.084;7.090;2023-01-25T15:30:54;71.35;;;31.50;;
37763;SDS011;23602;51.084;7.090;2023-01-25T15:33:27;94.82;;;35.72;;
37763;SDS011;23602;51.084;7.090;2023-01-25T15:35:54;90.53;;;36.45;;
37763;SDS011;23602;51.084;7.090;2023-01-25T15:38:27;87.90;;;34.67;;
37763;SDS011;23602;51.084;7.090;2023-01-25T15:40:53;88.85;;;33.45;;
37763;SDS011;23602;51.084;7.090;2023-01-25T15:43:24;87.18;;;33.97;;
37763;SDS011;23602;51.084;7.090;2023-01-25T15:45:49;79.97;;;33.30;;
37763;SDS011;23602;51.084;7.090;2023-01-25T15:48:16;83.65;;;32.15;;
37763;SDS011;23602;51.084;7.090;2023-01-25T15:50:51;75.60;;;31.50;;
37763;SDS011;23602;51.084;7.090;2023-01-25T15:53:19;82.88;;;34.80;;
37763;SDS011;23602;51.084;7.090;2023-01-25T15:55:45;81.82;;;34.00;;
37763;SDS011;23602;51.084;7.090;2023-01-25T15:58:17;70.82;;;31.63;;
37763;SDS011;23602;51.084;7.090;2023-01-25T16:00:48;88.97;;;34.67;;
37763;SDS011;23602;51.084;7.090;2023-01-25T16:03:14;80.40;;;32.92;;
37763;SDS011;23602;51.084;7.090;2023-01-25T16:05:40;82.22;;;33.42;;
37763;SDS011;23602;51.084;7.090;2023-01-25T16:08:11;80.30;;;34.28;;
37763;SDS011;23602;51.084;7.090;2023-01-25T16:10:42;81.28;;;34.10;;
37763;SDS011;23602;51.084;7.090;2023-01-25T16:13:10;72.30;;;32.30;;
37763;SDS011;23602;51.084;7.090;2023-01-25T16:15:36;79.80;;;32.53;;
37763;SDS011;23602;51.084;7.090;2023-01-25T16:18:09;78.03;;;31.20;;
37763;SDS011;23602;51.084;7.090;2023-01-25T16:20:40;80.20;;;32.90;;
37763;SDS011;23602;51.084;7.090;2023-01-25T16:23:08;79.00;;;31.58;;
37763;SDS011;23602;51.084;7.090;2023-01-25T16:25:36;79.25;;;31.67;;